• Join FlightAware (Why Join?)
  • Login
  • US Flag 
09:33AM EDT


 

Airport Tracker/Info


-or-


 

Live Flight TrackerFlight Track Log ✈ UAL143 ✈ 10-Jun-2013 ✈ DNMM / LOS - KIAH

Flight Track Log - Related Links

Times and Time Zones

All times are in EDT time to prevent confusion due to time zone crossing. See the UAL143 flight status page for this flight to view local times or setup timezone preferences in your user account.

Time Position Orientation Groundspeed Altitude Reporting Facility
EDT Latitude Longitude Course Direction KTS MPH feet Rate Location/Type
06:30PM 6.8440 2.8712 304° West  Level Estimated
06:31PM 6.9106 2.7586 305° West  Level Estimated
06:32PM 6.9201 2.6279 274° West  Level FlightAware Approximate
06:33PM 6.9296 2.4972 274° West  Level FlightAware Approximate
06:34PM 6.9961 2.3846 303° West  Level Estimated
06:35PM 7.0626 2.2719 305° West  Level Estimated
06:36PM 7.0795 2.1419 277° West  Level FlightAware Approximate
06:37PM 7.1459 2.0291 306° West  Level Estimated
06:38PM 7.2122 1.9164 315° West  Level Estimated
06:39PM 7.2786 1.8035 306° West  Level Estimated
06:40PM 7.3449 1.6907 304° West  Level Estimated
06:41PM 7.3673 1.5615 280° West  Level FlightAware Approximate
06:42PM 7.4336 1.4486 303° West  Level Estimated
06:43PM 7.4625 1.3206 283° West  Level FlightAware Approximate
06:44PM 7.4913 1.1927 283° West  Level FlightAware Approximate
06:45PM 7.5574 1.0797 302° West  Level Estimated
06:46PM 7.5902 0.9527 285° West  Level FlightAware Approximate
06:47PM 7.6228 0.8256 285° West  Level FlightAware Approximate
06:48PM 7.6889 0.7125 307° West  Level Estimated
06:49PM 7.7549 0.5994 304° West  Level Estimated
06:50PM 7.8206 0.4861 300° West  Level FlightAware Approximate
06:51PM 7.8863 0.3727 300° West  Level FlightAware Approximate
06:52PM 7.9519 0.2593 300° West  Level FlightAware Approximate
06:53PM 8.0175 0.1458 300° West  Level FlightAware Approximate
06:54PM 8.0831 0.0323 300° West  Level FlightAware Approximate
06:55PM 8.1486 -0.0812 300° West  Level FlightAware Approximate
06:56PM 8.2141 -0.1947 300° West  Level FlightAware Approximate
06:57PM 8.2796 -0.3083 300° West  Level FlightAware Approximate
06:58PM 8.3450 -0.4220 300° West  Level FlightAware Approximate
06:59PM 8.4108 -0.5363 300° West  Level FlightAware Approximate
07:00PM 8.4766 -0.6506 300° West  Level FlightAware Approximate
07:01PM 8.5423 -0.7650 300° West  Level FlightAware Approximate
07:02PM 8.6080 -0.8794 300° West  Level FlightAware Approximate
07:03PM 8.6736 -0.9939 300° West  Level FlightAware Approximate
07:04PM 8.7392 -1.1084 300° West  Level FlightAware Approximate
07:05PM 8.8048 -1.2229 300° West  Level FlightAware Approximate
07:06PM 8.8703 -1.3375 300° West  Level FlightAware Approximate
07:07PM 8.9358 -1.4521 300° West  Level FlightAware Approximate
07:08PM 9.0013 -1.5668 300° West  Level FlightAware Approximate
07:09PM 9.0667 -1.6815 300° West  Level FlightAware Approximate
07:10PM 9.1321 -1.7962 300° West  Level FlightAware Approximate
07:11PM 9.1975 -1.9110 300° West  Level FlightAware Approximate
07:12PM 9.2628 -2.0258 300° West  Level FlightAware Approximate
07:13PM 9.3281 -2.1407 300° West  Level FlightAware Approximate
07:14PM 9.3934 -2.2556 300° West  Level FlightAware Approximate
07:15PM 9.4586 -2.3706 300° West  Level FlightAware Approximate
07:16PM 9.5238 -2.4856 300° West  Level FlightAware Approximate
07:17PM 9.5889 -2.6007 300° West  Level FlightAware Approximate
07:18PM 9.6540 -2.7157 300° West  Level FlightAware Approximate
07:19PM 9.7191 -2.8309 300° West  Level FlightAware Approximate
07:20PM 9.7841 -2.9461 300° West  Level FlightAware Approximate
07:21PM 9.8491 -3.0613 300° West  Level FlightAware Approximate
07:22PM 9.9141 -3.1766 300° West  Level FlightAware Approximate
07:23PM 9.9790 -3.2919 300° West  Level FlightAware Approximate
07:24PM 10.0438 -3.4072 300° West  Level FlightAware Approximate
07:25PM 10.1087 -3.5227 300° West  Level FlightAware Approximate
07:26PM 10.1735 -3.6381 300° West  Level FlightAware Approximate
07:27PM 10.2382 -3.7536 300° West  Level FlightAware Approximate
07:28PM 10.3029 -3.8692 300° West  Level FlightAware Approximate
07:29PM 10.3676 -3.9848 300° West  Level FlightAware Approximate
07:30PM 10.4322 -4.1004 300° West  Level FlightAware Approximate
07:31PM 10.4968 -4.2161 300° West  Level FlightAware Approximate
07:32PM 10.5613 -4.3319 300° West  Level FlightAware Approximate
07:33PM 10.6258 -4.4476 300° West  Level FlightAware Approximate
07:34PM 10.6903 -4.5635 300° West  Level FlightAware Approximate
07:35PM 10.7547 -4.6794 300° West  Level FlightAware Approximate
07:36PM 10.8191 -4.7953 299° West  Level FlightAware Approximate
07:37PM 10.8834 -4.9113 299° West  Level FlightAware Approximate
07:38PM 10.9477 -5.0273 299° West  Level FlightAware Approximate
07:39PM 11.0119 -5.1434 299° West  Level FlightAware Approximate
07:40PM 11.0761 -5.2596 299° West  Level FlightAware Approximate
07:41PM 11.1403 -5.3758 299° West  Level FlightAware Approximate
07:42PM 11.2044 -5.4920 299° West  Level FlightAware Approximate
07:43PM 11.2685 -5.6083 299° West  Level FlightAware Approximate
07:44PM 11.3325 -5.7246 299° West  Level FlightAware Approximate
07:45PM 11.3965 -5.8411 299° West  Level FlightAware Approximate
07:46PM 11.4604 -5.9575 299° West  Level FlightAware Approximate
07:47PM 11.5243 -6.0740 299° West  Level FlightAware Approximate
07:48PM 11.5881 -6.1906 299° West  Level FlightAware Approximate
07:49PM 11.6519 -6.3072 299° West  Level FlightAware Approximate
07:50PM 11.7159 -6.4237 307° West  Level Estimated
07:51PM 11.7877 -6.5354 303° West  Level FlightAware Approximate
07:52PM 11.8594 -6.6472 303° West  Level FlightAware Approximate
07:53PM 11.9310 -6.7591 303° West  Level FlightAware Approximate
07:54PM 12.0026 -6.8710 303° West  Level FlightAware Approximate
07:55PM 12.0742 -6.9830 303° West  Level FlightAware Approximate
07:56PM 12.1457 -7.0950 303° West  Level FlightAware Approximate
07:57PM 12.2171 -7.2071 303° West  Level FlightAware Approximate
07:58PM 12.2886 -7.3193 303° West  Level FlightAware Approximate
07:59PM 12.3599 -7.4315 303° West  Level FlightAware Approximate
08:00PM 12.4313 -7.5438 303° West  Level FlightAware Approximate
08:01PM 12.5025 -7.6561 303° West  Level FlightAware Approximate
08:02PM 12.5738 -7.7685 303° West  Level FlightAware Approximate
08:03PM 12.6372 -7.8858 307° West  Level Estimated
08:04PM 12.7113 -7.9963 305° West  Level FlightAware Approximate
08:05PM 12.7854 -8.1068 305° West  Level FlightAware Approximate
08:06PM 12.8594 -8.2175 304° West  Level FlightAware Approximate
08:07PM 12.9334 -8.3282 304° West  Level FlightAware Approximate
08:08PM 13.0073 -8.4389 304° West  Level FlightAware Approximate
08:09PM 13.0812 -8.5497 304° West  Level FlightAware Approximate
08:10PM 13.1443 -8.6674 306° West  Level Estimated
08:11PM 13.2214 -8.7759 306° West  Level FlightAware Approximate
08:12PM 13.2985 -8.8845 306° West  Level FlightAware Approximate
08:13PM 13.3756 -8.9932 306° West  Level FlightAware Approximate
08:14PM 13.4526 -9.1019 306° West  Level FlightAware Approximate
08:15PM 13.5296 -9.2107 306° West  Level FlightAware Approximate
08:16PM 13.6065 -9.3195 306° West  Level FlightAware Approximate
08:17PM 13.6833 -9.4285 306° West  Level FlightAware Approximate
08:18PM 13.7602 -9.5375 306° West  Level FlightAware Approximate
08:19PM 13.8370 -9.6465 306° West  Level FlightAware Approximate
08:20PM 13.9137 -9.7557 306° West  Level FlightAware Approximate
08:21PM 13.9904 -9.8649 306° West  Level FlightAware Approximate
08:22PM 14.0670 -9.9742 306° West  Level FlightAware Approximate
08:23PM 14.1436 -10.0836 306° West  Level FlightAware Approximate
08:24PM 14.2201 -10.1930 306° West  Level FlightAware Approximate
08:25PM 14.2966 -10.3025 306° West  Level FlightAware Approximate
08:26PM 14.3730 -10.4121 306° West  Level FlightAware Approximate
08:27PM 14.4494 -10.5218 306° West  Level FlightAware Approximate
08:28PM 14.5257 -10.6315 306° West  Level FlightAware Approximate
08:29PM 14.6020 -10.7413 306° West  Level FlightAware Approximate
08:30PM 14.6781 -10.8511 306° West  Level FlightAware Approximate
08:31PM 14.7542 -10.9609 306° West  Level FlightAware Approximate
08:32PM 14.8302 -11.0708 306° West  Level FlightAware Approximate
08:33PM 14.9062 -11.1807 306° West  Level FlightAware Approximate
08:34PM 14.9821 -11.2908 306° West  Level FlightAware Approximate
08:35PM 15.0580 -11.4009 306° West  Level FlightAware Approximate
08:36PM 15.1338 -11.5111 305° West  Level FlightAware Approximate
08:37PM 15.2095 -11.6214 305° West  Level FlightAware Approximate
08:38PM 15.2852 -11.7317 305° West  Level FlightAware Approximate
08:39PM 15.3609 -11.8422 305° West  Level FlightAware Approximate
08:40PM 15.4365 -11.9527 305° West  Level FlightAware Approximate
08:41PM 15.5120 -12.0633 305° West  Level FlightAware Approximate
08:42PM 15.5875 -12.1740 305° West  Level FlightAware Approximate
08:43PM 15.6629 -12.2847 305° West  Level FlightAware Approximate
08:44PM 15.7383 -12.3956 305° West  Level FlightAware Approximate
08:45PM 15.8136 -12.5065 305° West  Level FlightAware Approximate
08:46PM 15.8888 -12.6175 305° West  Level FlightAware Approximate
08:47PM 15.9640 -12.7286 305° West  Level FlightAware Approximate
08:48PM 16.0392 -12.8398 305° West  Level FlightAware Approximate
08:49PM 16.1143 -12.9510 305° West  Level FlightAware Approximate
08:50PM 16.1893 -13.0624 305° West  Level FlightAware Approximate
08:51PM 16.2643 -13.1738 305° West  Level FlightAware Approximate
08:52PM 16.3392 -13.2853 305° West  Level FlightAware Approximate
08:53PM 16.4140 -13.3969 305° West  Level FlightAware Approximate
08:54PM 16.4888 -13.5086 305° West  Level FlightAware Approximate
08:55PM 16.5636 -13.6203 305° West  Level FlightAware Approximate
08:56PM 16.6383 -13.7322 305° West  Level FlightAware Approximate
08:57PM 16.7129 -13.8441 305° West  Level FlightAware Approximate
08:58PM 16.7874 -13.9562 305° West  Level FlightAware Approximate
08:59PM 16.8619 -14.0683 305° West  Level FlightAware Approximate
09:00PM 16.9364 -14.1805 305° West  Level FlightAware Approximate
09:01PM 17.0107 -14.2928 305° West  Level FlightAware Approximate
09:02PM 17.0850 -14.4052 305° West  Level FlightAware Approximate
09:03PM 17.1445 -14.5269 313° West  Level Estimated
09:04PM 17.2324 -14.6281 312° West  Level FlightAware Approximate
09:05PM 17.3203 -14.7293 312° West  Level FlightAware Approximate
09:06PM 17.4081 -14.8307 312° West  Level FlightAware Approximate
09:07PM 17.4958 -14.9321 312° West  Level FlightAware Approximate
09:08PM 17.5835 -15.0337 312° West  Level FlightAware Approximate
09:09PM 17.6712 -15.1353 312° West  Level FlightAware Approximate
09:10PM 17.7588 -15.2371 312° West  Level FlightAware Approximate
09:11PM 17.8463 -15.3389 312° West  Level FlightAware Approximate
09:12PM 17.9338 -15.4409 312° West  Level FlightAware Approximate
09:13PM 18.0212 -15.5429 312° West  Level FlightAware Approximate
09:14PM 18.1086 -15.6451 312° West  Level FlightAware Approximate
09:15PM 18.1959 -15.7473 312° West  Level FlightAware Approximate
09:16PM 18.2832 -15.8497 312° West  Level FlightAware Approximate
09:17PM 18.3704 -15.9522 312° West  Level FlightAware Approximate
09:18PM 18.4576 -16.0547 312° West  Level FlightAware Approximate
09:19PM 18.5447 -16.1574 312° West  Level FlightAware Approximate
09:20PM 18.6318 -16.2602 312° West  Level FlightAware Approximate
09:21PM 18.7188 -16.3630 312° West  Level FlightAware Approximate
09:22PM 18.8057 -16.4660 312° West  Level FlightAware Approximate
09:23PM 18.8926 -16.5691 312° West  Level FlightAware Approximate
09:24PM 18.9794 -16.6723 312° West  Level FlightAware Approximate
09:25PM 19.0662 -16.7756 312° West  Level FlightAware Approximate
09:26PM 19.1529 -16.8790 312° West  Level FlightAware Approximate
09:27PM 19.2396 -16.9825 312° West  Level FlightAware Approximate
09:28PM 19.3262 -17.0862 312° West  Level FlightAware Approximate
09:29PM 19.4127 -17.1899 312° West  Level FlightAware Approximate
09:30PM 19.4992 -17.2938 311° West  Level FlightAware Approximate
09:31PM 19.5856 -17.3977 311° West  Level FlightAware Approximate
09:32PM 19.6720 -17.5018 311° West  Level FlightAware Approximate
09:33PM 19.7583 -17.6060 311° West  Level FlightAware Approximate
09:34PM 19.8445 -17.7103 311° West  Level FlightAware Approximate
09:35PM 19.9307 -17.8147 311° West  Level FlightAware Approximate
09:36PM 20.0168 -17.9192 311° West  Level FlightAware Approximate
09:37PM 20.1029 -18.0238 311° West  Level FlightAware Approximate
09:38PM 20.1889 -18.1286 311° West  Level FlightAware Approximate
09:39PM 20.2748 -18.2335 311° West  Level FlightAware Approximate
09:40PM 20.3607 -18.3384 311° West  Level FlightAware Approximate
09:41PM 20.4465 -18.4436 311° West  Level FlightAware Approximate
09:42PM 20.5322 -18.5488 311° West  Level FlightAware Approximate
09:43PM 20.6179 -18.6541 311° West  Level FlightAware Approximate
09:44PM 20.7035 -18.7596 311° West  Level FlightAware Approximate
09:45PM 20.7891 -18.8652 311° West  Level FlightAware Approximate
09:46PM 20.8746 -18.9708 311° West  Level FlightAware Approximate
09:47PM 20.9600 -19.0767 311° West  Level FlightAware Approximate
09:48PM 21.0454 -19.1826 311° West  Level FlightAware Approximate
09:49PM 21.1307 -19.2887 311° West  Level FlightAware Approximate
09:50PM 21.2159 -19.3948 311° West  Level FlightAware Approximate
09:51PM 21.3011 -19.5012 311° West  Level FlightAware Approximate
09:52PM 21.3861 -19.6076 311° West  Level FlightAware Approximate
09:53PM 21.4712 -19.7141 311° West  Level FlightAware Approximate
09:54PM 21.5561 -19.8208 311° West  Level FlightAware Approximate
09:55PM 21.6410 -19.9276 311° West  Level FlightAware Approximate
09:56PM 21.7258 -20.0345 311° West  Level FlightAware Approximate
09:57PM 21.8106 -20.1416 310° West  Level FlightAware Approximate
09:58PM 21.8946 -20.2479 310° West  Level FlightAware Approximate
09:59PM 21.9785 -20.3543 310° West  Level FlightAware Approximate
10:00PM 22.0624 -20.4608 310° West  Level FlightAware Approximate
10:01PM 22.1461 -20.5675 310° West  Level FlightAware Approximate
10:02PM 22.2299 -20.6743 310° West  Level FlightAware Approximate
10:03PM 22.3135 -20.7812 310° West  Level FlightAware Approximate
10:04PM 22.3971 -20.8883 310° West  Level FlightAware Approximate
10:05PM 22.4806 -20.9954 310° West  Level FlightAware Approximate
10:06PM 22.5640 -21.1028 310° West  Level FlightAware Approximate
10:07PM 22.6474 -21.2102 310° West  Level FlightAware Approximate
10:08PM 22.7306 -21.3178 310° West  Level FlightAware Approximate
10:09PM 22.8139 -21.4255 310° West  Level FlightAware Approximate
10:10PM 22.8970 -21.5333 310° West  Level FlightAware Approximate
10:11PM 22.9801 -21.6413 310° West  Level FlightAware Approximate
10:12PM 23.0630 -21.7494 310° West  Level FlightAware Approximate
10:13PM 23.1460 -21.8576 310° West  Level FlightAware Approximate
10:14PM 23.2288 -21.9660 310° West  Level FlightAware Approximate
10:15PM 23.3116 -22.0744 310° West  Level FlightAware Approximate
10:16PM 23.3943 -22.1831 310° West  Level FlightAware Approximate
10:17PM 23.4769 -22.2918 310° West  Level FlightAware Approximate
10:18PM 23.5595 -22.4008 310° West  Level FlightAware Approximate
10:19PM 23.6419 -22.5098 310° West  Level FlightAware Approximate
10:20PM 23.7243 -22.6190 310° West  Level FlightAware Approximate
10:21PM 23.8067 -22.7283 309° West  Level FlightAware Approximate
10:22PM 23.8889 -22.8378 309° West  Level FlightAware Approximate
10:23PM 23.9711 -22.9474 309° West  Level FlightAware Approximate
10:24PM 24.0531 -23.0571 309° West  Level FlightAware Approximate
10:25PM 24.1352 -23.1670 309° West  Level FlightAware Approximate
10:26PM 24.2171 -23.2770 309° West  Level FlightAware Approximate
10:27PM 24.2989 -23.3872 309° West  Level FlightAware Approximate
10:28PM 24.3807 -23.4975 309° West  Level FlightAware Approximate
10:29PM 24.4306 -23.6288 310° West  Level Estimated
10:30PM 24.5141 -23.7376 310° West  Level FlightAware Approximate
10:31PM 24.5975 -23.8466 310° West  Level FlightAware Approximate
10:32PM 24.6809 -23.9557 310° West  Level FlightAware Approximate
10:33PM 24.7642 -24.0650 310° West  Level FlightAware Approximate
10:34PM 24.8474 -24.1744 310° West  Level FlightAware Approximate
10:35PM 24.9305 -24.2839 310° West  Level FlightAware Approximate
10:36PM 25.0135 -24.3936 310° West  Level FlightAware Approximate
10:37PM 25.0965 -24.5035 310° West  Level FlightAware Approximate
10:38PM 25.1794 -24.6135 310° West  Level FlightAware Approximate
10:39PM 25.2622 -24.7236 310° West  Level FlightAware Approximate
10:40PM 25.3449 -24.8339 310° West  Level FlightAware Approximate
10:41PM 25.4275 -24.9444 310° West  Level FlightAware Approximate
10:42PM 25.5101 -25.0550 310° West  Level FlightAware Approximate
10:43PM 25.5926 -25.1657 310° West  Level FlightAware Approximate
10:44PM 25.6749 -25.2766 310° West  Level FlightAware Approximate
10:45PM 25.7572 -25.3877 309° West  Level FlightAware Approximate
10:46PM 25.8395 -25.4989 309° West  Level FlightAware Approximate
10:47PM 25.9216 -25.6103 309° West  Level FlightAware Approximate
10:48PM 26.0036 -25.7218 309° West  Level FlightAware Approximate
10:49PM 26.0856 -25.8335 309° West  Level FlightAware Approximate
10:50PM 26.1675 -25.9453 309° West  Level FlightAware Approximate
10:51PM 26.2493 -26.0573 309° West  Level FlightAware Approximate
10:52PM 26.3310 -26.1695 309° West  Level FlightAware Approximate
10:53PM 26.4126 -26.2818 309° West  Level FlightAware Approximate
10:54PM 26.4941 -26.3943 309° West  Level FlightAware Approximate
10:55PM 26.5756 -26.5069 309° West  Level FlightAware Approximate
10:56PM 26.6569 -26.6197 309° West  Level FlightAware Approximate
10:57PM 26.7382 -26.7326 309° West  Level FlightAware Approximate
10:58PM 26.8193 -26.8458 309° West  Level FlightAware Approximate
10:59PM 26.9004 -26.9590 309° West  Level FlightAware Approximate
11:00PM 26.9814 -27.0725 309° West  Level FlightAware Approximate
11:01PM 27.0623 -27.1861 309° West  Level FlightAware Approximate
11:02PM 27.1431 -27.2998 309° West  Level FlightAware Approximate
11:03PM 27.2238 -27.4137 309° West  Level FlightAware Approximate
11:04PM 27.3044 -27.5278 309° West  Level FlightAware Approximate
11:05PM 27.3850 -27.6421 308° West  Level FlightAware Approximate
11:06PM 27.4654 -27.7565 308° West  Level FlightAware Approximate
11:07PM 27.5458 -27.8711 308° West  Level FlightAware Approximate
11:08PM 27.6260 -27.9859 308° West  Level FlightAware Approximate
11:09PM 27.7062 -28.1008 308° West  Level FlightAware Approximate
11:10PM 27.7862 -28.2159 308° West  Level FlightAware Approximate
11:11PM 27.8662 -28.3312 308° West  Level FlightAware Approximate
11:12PM 27.9095 -28.4693 285° West  Level Estimated
11:13PM 27.9542 -28.6070 290° West  Level FlightAware Approximate
11:14PM 27.9988 -28.7447 290° West  Level FlightAware Approximate
11:15PM 28.0432 -28.8826 290° West  Level FlightAware Approximate
11:16PM 28.0875 -29.0206 290° West  Level FlightAware Approximate
11:17PM 28.1316 -29.1587 290° West  Level FlightAware Approximate
11:18PM 28.1756 -29.2969 290° West  Level FlightAware Approximate
11:19PM 28.2195 -29.4352 290° West  Level FlightAware Approximate
11:20PM 28.2632 -29.5736 290° West  Level FlightAware Approximate
11:21PM 28.3068 -29.7122 290° West  Level FlightAware Approximate
11:22PM 28.3503 -29.8508 290° West  Level FlightAware Approximate
11:23PM 28.3936 -29.9896 290° West  Level FlightAware Approximate
11:24PM 28.4368 -30.1285 289° West  Level FlightAware Approximate
11:25PM 28.4798 -30.2675 289° West  Level FlightAware Approximate
11:26PM 28.5227 -30.4066 289° West  Level FlightAware Approximate
11:27PM 28.5654 -30.5459 289° West  Level FlightAware Approximate
11:28PM 28.6082 -30.6858 289° West  Level FlightAware Approximate
11:29PM 28.6508 -30.8258 289° West  Level FlightAware Approximate
11:30PM 28.6933 -30.9660 289° West  Level FlightAware Approximate
11:31PM 28.7356 -31.1062 289° West  Level FlightAware Approximate
11:32PM 28.7778 -31.2466 289° West  Level FlightAware Approximate
11:33PM 28.8199 -31.3871 289° West  Level FlightAware Approximate
11:34PM 28.8618 -31.5277 289° West  Level FlightAware Approximate
11:35PM 28.9036 -31.6684 289° West  Level FlightAware Approximate
11:36PM 28.9452 -31.8092 289° West  Level FlightAware Approximate
11:37PM 28.9867 -31.9502 289° West  Level FlightAware Approximate
11:38PM 29.0280 -32.0913 289° West  Level FlightAware Approximate
11:39PM 29.0692 -32.2324 288° West  Level FlightAware Approximate
11:40PM 29.1102 -32.3737 288° West  Level FlightAware Approximate
11:41PM 29.1511 -32.5151 288° West  Level FlightAware Approximate
11:42PM 29.1918 -32.6566 288° West  Level FlightAware Approximate
11:43PM 29.2324 -32.7982 288° West  Level FlightAware Approximate
11:44PM 29.2728 -32.9399 288° West  Level FlightAware Approximate
11:45PM 29.3131 -33.0818 288° West  Level FlightAware Approximate
11:46PM 29.3532 -33.2238 288° West  Level FlightAware Approximate
11:47PM 29.3932 -33.3658 288° West  Level FlightAware Approximate
11:48PM 29.4330 -33.5080 288° West  Level FlightAware Approximate
11:49PM 29.4727 -33.6503 288° West  Level FlightAware Approximate
11:50PM 29.5122 -33.7927 288° West  Level FlightAware Approximate
11:51PM 29.5516 -33.9352 288° West  Level FlightAware Approximate
11:52PM 29.5908 -34.0778 288° West  Level FlightAware Approximate
11:53PM 29.6299 -34.2206 288° West  Level FlightAware Approximate
11:54PM 29.6688 -34.3634 287° West  Level FlightAware Approximate
11:55PM 29.7076 -34.5063 287° West  Level FlightAware Approximate
11:56PM 29.7462 -34.6494 287° West  Level FlightAware Approximate
11:57PM 29.7847 -34.7926 287° West  Level FlightAware Approximate
11:58PM 29.8230 -34.9358 287° West  Level FlightAware Approximate
11:59PM 29.8611 -35.0792 287° West  Level FlightAware Approximate
12:00AM 29.8991 -35.2227 287° West  Level FlightAware Approximate
12:01AM 29.9370 -35.3663 287° West  Level FlightAware Approximate
12:02AM 29.9746 -35.5101 287° West  Level FlightAware Approximate
12:03AM 30.0122 -35.6539 287° West  Level FlightAware Approximate
12:04AM 30.0495 -35.7978 287° West  Level FlightAware Approximate
12:05AM 30.0867 -35.9419 287° West  Level FlightAware Approximate
12:06AM 30.1238 -36.0860 287° West  Level FlightAware Approximate
12:07AM 30.1607 -36.2303 287° West  Level FlightAware Approximate
12:08AM 30.1974 -36.3747 286° West  Level FlightAware Approximate
12:09AM 30.2340 -36.5192 286° West  Level FlightAware Approximate
12:10AM 30.2704 -36.6637 286° West  Level FlightAware Approximate
12:11AM 30.3067 -36.8084 286° West  Level FlightAware Approximate
12:12AM 30.3428 -36.9532 286° West  Level FlightAware Approximate
12:13AM 30.3788 -37.0981 286° West  Level FlightAware Approximate
12:14AM 30.4129 -37.2437 281° West  Level Estimated
12:15AM 30.4456 -37.3897 285° West  Level FlightAware Approximate
12:16AM 30.4782 -37.5358 285° West  Level FlightAware Approximate
12:17AM 30.5106 -37.6821 284° West  Level FlightAware Approximate
12:18AM 30.5429 -37.8284 284° West  Level FlightAware Approximate
12:19AM 30.5750 -37.9748 284° West  Level FlightAware Approximate
12:20AM 30.6069 -38.1213 284° West  Level FlightAware Approximate
12:21AM 30.6399 -38.2675 272° West  Level Estimated
12:22AM 30.6562 -38.4176 277° West  Level FlightAware Approximate
12:22AM 31.0000 -40.0000 273° West 504 580 36,000  Level New York Oceanic (ODAPS)
12:23AM 30.6723 -38.5677 277° West  Level FlightAware Approximate
12:24AM 30.6882 -38.7178 277° West  Level FlightAware Approximate
12:25AM 30.7040 -38.8680 277° West  Level FlightAware Approximate
12:26AM 30.7195 -39.0182 277° West  Level FlightAware Approximate
12:27AM 30.7349 -39.1685 277° West  Level FlightAware Approximate
12:28AM 31.0342 -40.9826 272° West 504 580 36,000  Level FlightAware Transoceanic
12:29AM 31.0392 -41.1465 272° West 504 580 36,000  Level FlightAware Transoceanic
12:29AM 31.0333 -41.1167 272° West 506 582 36,000  Level New York Oceanic (ODAPS)
12:30AM 31.0440 -41.3103 272° West 504 580 36,000  Level FlightAware Transoceanic
12:31AM 31.0485 -41.4742 272° West 504 580 36,000  Level FlightAware Transoceanic
12:32AM 31.0529 -41.6381 272° West 504 580 36,000  Level FlightAware Transoceanic
12:33AM 31.0571 -41.8020 272° West 504 580 36,000  Level FlightAware Transoceanic
12:34AM 31.0610 -41.9659 272° West 504 580 36,000  Level FlightAware Transoceanic
12:35AM 31.0597 -42.1033 272° West 506 582 36,000  Level FlightAware Transoceanic
12:36AM 31.0634 -42.2678 271° West 506 582 36,000  Level FlightAware Transoceanic
12:37AM 31.0668 -42.4323 271° West 506 582 36,000  Level FlightAware Transoceanic
12:38AM 31.0701 -42.5968 271° West 506 582 36,000  Level FlightAware Transoceanic
12:39AM 31.0731 -42.7613 271° West 506 582 36,000  Level FlightAware Transoceanic
12:40AM 31.0760 -42.9258 271° West 506 582 36,000  Level FlightAware Transoceanic
12:41AM 31.0786 -43.0904 271° West 506 582 36,000  Level FlightAware Transoceanic
12:42AM 31.0810 -43.2549 271° West 506 582 36,000  Level FlightAware Transoceanic
12:42AM 31.0833 -43.3833 271° West 508 585 36,000  Level New York Oceanic (ODAPS)
12:43AM 31.0832 -43.4195 271° West 506 582 36,000  Level FlightAware Transoceanic
12:44AM 31.0852 -43.5840 271° West 506 582 36,000  Level FlightAware Transoceanic
12:45AM 31.0870 -43.7486 271° West 506 582 36,000  Level FlightAware Transoceanic
12:46AM 31.0886 -43.9132 271° West 506 582 36,000  Level FlightAware Transoceanic
12:47AM 31.0899 -44.0778 271° West 506 582 36,000  Level FlightAware Transoceanic
12:48AM 31.0911 -44.2424 270° West 506 582 36,000  Level FlightAware Transoceanic
12:49AM 31.0924 -44.3762 270° West 508 585 36,000  Level FlightAware Transoceanic
12:50AM 31.0931 -44.5417 270° West 508 585 36,000  Level FlightAware Transoceanic
12:51AM 31.0937 -44.7072 270° West 508 585 36,000  Level FlightAware Transoceanic
12:52AM 31.0941 -44.8727 270° West 508 585 36,000  Level FlightAware Transoceanic
12:53AM 31.0942 -45.0382 270° West 508 585 36,000  Level FlightAware Transoceanic
12:54AM 31.0941 -45.2037 270° West 508 585 36,000  Level FlightAware Transoceanic
12:55AM 31.0938 -45.3692 270° West 508 585 36,000  Level FlightAware Transoceanic
12:56AM 31.0933 -45.5347 270° West 508 585 36,000  Level FlightAware Transoceanic
12:56AM 31.1000 -45.6833 270° West 510 587 36,000  Level New York Oceanic (ODAPS)
12:57AM 31.0926 -45.7002 270° West 508 585 36,000  Level FlightAware Transoceanic
12:58AM 31.0917 -45.8657 270° West 508 585 36,000  Level FlightAware Transoceanic
12:59AM 31.0906 -46.0312 269° West 508 585 36,000  Level FlightAware Transoceanic
01:00AM 31.0892 -46.1967 269° West 508 585 36,000  Level FlightAware Transoceanic
01:01AM 31.0877 -46.3622 269° West 508 585 36,000  Level FlightAware Transoceanic
01:02AM 31.0859 -46.5276 269° West 508 585 36,000  Level FlightAware Transoceanic
01:03AM 31.0897 -46.6802 269° West 510 587 36,000  Level FlightAware Transoceanic
01:04AM 31.0872 -46.8463 269° West 510 587 36,000  Level FlightAware Transoceanic
01:05AM 31.0846 -47.0124 269° West 510 587 36,000  Level FlightAware Transoceanic
01:06AM 31.0817 -47.1785 269° West 510 587 36,000  Level FlightAware Transoceanic
01:07AM 31.0786 -47.3446 269° West 510 587 36,000  Level FlightAware Transoceanic
01:08AM 31.0752 -47.5107 269° West 510 587 36,000  Level FlightAware Transoceanic
01:09AM 31.0717 -47.6768 269° West 510 587 36,000  Level FlightAware Transoceanic
01:10AM 31.0680 -47.8428 268° West 510 587 36,000  Level FlightAware Transoceanic
01:10AM 31.0667 -47.9833 268° West 511 588 36,000  Level New York Oceanic (ODAPS)
01:11AM 31.0640 -48.0088 268° West 510 587 36,000  Level FlightAware Transoceanic
01:12AM 31.0599 -48.1749 268° West 510 587 36,000  Level FlightAware Transoceanic
01:13AM 31.0555 -48.3409 268° West 510 587 36,000  Level FlightAware Transoceanic
01:14AM 31.0509 -48.5069 268° West 510 587 36,000  Level FlightAware Transoceanic
01:15AM 31.0461 -48.6729 268° West 510 587 36,000  Level FlightAware Transoceanic
01:16AM 31.0411 -48.8388 268° West 510 587 36,000  Level FlightAware Transoceanic
01:17AM 31.0347 -49.0696 268° West 511 588 36,000  Level FlightAware Transoceanic
01:18AM 31.0294 -49.2247 268° West 511 588 36,000  Level FlightAware Transoceanic
01:19AM 31.0238 -49.3798 268° West 511 588 36,000  Level FlightAware Transoceanic
01:20AM 31.0182 -49.5349 268° West 511 588 36,000  Level FlightAware Transoceanic
01:21AM 31.0123 -49.6899 267° West 511 588 36,000  Level FlightAware Transoceanic
01:22AM 31.0062 -49.8450 267° West 511 588 36,000  Level FlightAware Transoceanic
01:22AM 31.0000 -50.0000 279° West 496 571 36,000  Level New York Oceanic (ODAPS)
01:23AM 31.0000 -50.0000 279° West 511 588 36,000  Level FlightAware Transoceanic
01:24AM 31.0219 -50.1569 279° West 511 588 36,000  Level FlightAware Transoceanic
01:24AM 31.0333 -50.2667 279° West 492 566 36,000  Level New York Oceanic (ODAPS)
01:25AM 31.0436 -50.3138 279° West 511 588 36,000  Level FlightAware Transoceanic
01:26AM 31.0651 -50.4708 279° West 511 588 36,000  Level FlightAware Transoceanic
01:27AM 31.0864 -50.6279 279° West 511 588 36,000  Level FlightAware Transoceanic
01:28AM 31.1076 -50.7850 279° West 511 588 36,000  Level FlightAware Transoceanic
01:29AM 31.1305 -50.9575 279° West 496 571 36,000  Level FlightAware Transoceanic
01:30AM 31.1589 -51.1990 279° West 492 566 36,000  Level FlightAware Transoceanic
01:31AM 31.1791 -51.3546 279° West 492 566 36,000  Level FlightAware Transoceanic
01:32AM 31.1992 -51.5103 279° West 492 566 36,000  Level FlightAware Transoceanic
01:33AM 31.2191 -51.6660 278° West 492 566 36,000  Level FlightAware Transoceanic
01:34AM 31.2388 -51.8218 278° West 492 566 36,000  Level FlightAware Transoceanic
01:35AM 31.2584 -51.9777 278° West 492 566 36,000  Level FlightAware Transoceanic
01:36AM 31.2777 -52.1337 278° West 492 566 36,000  Level FlightAware Transoceanic
01:37AM 31.2968 -52.2897 278° West 492 566 36,000  Level FlightAware Transoceanic
01:38AM 31.3158 -52.4458 278° West 492 566 36,000  Level FlightAware Transoceanic
01:38AM 31.3167 -52.4833 278° West 487 560 36,000  Level New York Oceanic (ODAPS)
01:39AM 31.3346 -52.6019 278° West 492 566 36,000  Level FlightAware Transoceanic
01:40AM 31.3531 -52.7581 278° West 492 566 36,000  Level FlightAware Transoceanic
01:41AM 31.3715 -52.9143 278° West 492 566 36,000  Level FlightAware Transoceanic
01:42AM 31.3897 -53.0707 278° West 492 566 36,000  Level FlightAware Transoceanic
01:43AM 31.4077 -53.2270 278° West 492 566 36,000  Level FlightAware Transoceanic
01:44AM 31.4261 -53.4164 278° West 487 560 36,000  Level FlightAware Transoceanic
01:45AM 31.4436 -53.5721 277° West 487 560 36,000  Level FlightAware Transoceanic
01:46AM 31.4610 -53.7279 277° West 487 560 36,000  Level FlightAware Transoceanic
01:47AM 31.4782 -53.8838 277° West 487 560 36,000  Level FlightAware Transoceanic
01:48AM 31.4953 -54.0396 277° West 487 560 36,000  Level FlightAware Transoceanic
01:49AM 31.5121 -54.1956 277° West 487 560 36,000  Level FlightAware Transoceanic
01:50AM 31.5287 -54.3516 277° West 487 560 36,000  Level FlightAware Transoceanic
01:51AM 31.5452 -54.5077 277° West 487 560 36,000  Level FlightAware Transoceanic
01:52AM 31.5614 -54.6638 277° West 487 560 36,000  Level FlightAware Transoceanic
01:52AM 31.5667 -54.6667 277° West 484 557 36,000  Level New York Oceanic (ODAPS)
01:53AM 31.5775 -54.8200 277° West 487 560 36,000  Level FlightAware Transoceanic
01:54AM 31.5933 -54.9762 277° West 487 560 36,000  Level FlightAware Transoceanic
01:55AM 31.6090 -55.1325 277° West 487 560 36,000  Level FlightAware Transoceanic
01:56AM 31.6245 -55.2888 277° West 487 560 36,000  Level FlightAware Transoceanic
01:57AM 31.6398 -55.4452 277° West 487 560 36,000  Level FlightAware Transoceanic
01:58AM 31.6593 -55.6040 276° West 484 557 36,000  Level FlightAware Transoceanic
01:59AM 31.6740 -55.7604 276° West 484 557 36,000  Level FlightAware Transoceanic
02:00AM 31.6886 -55.9169 276° West 484 557 36,000  Level FlightAware Transoceanic
02:01AM 31.7030 -56.0734 276° West 484 557 36,000  Level FlightAware Transoceanic
02:02AM 31.7172 -56.2299 276° West 484 557 36,000  Level FlightAware Transoceanic
02:03AM 31.7312 -56.3865 276° West 484 557 36,000  Level FlightAware Transoceanic
02:04AM 31.7450 -56.5432 276° West 484 557 36,000  Level FlightAware Transoceanic
02:05AM 31.7586 -56.6999 276° West 484 557 36,000  Level FlightAware Transoceanic
02:06AM 31.7720 -56.8566 276° West 484 557 36,000  Level FlightAware Transoceanic
02:06AM 31.7667 -56.8333 276° West 482 555 36,000  Level New York Oceanic (ODAPS)
02:07AM 31.7852 -57.0134 276° West 484 557 36,000  Level FlightAware Transoceanic
02:08AM 31.7983 -57.1702 276° West 484 557 36,000  Level FlightAware Transoceanic
02:09AM 31.8111 -57.3271 275° West 484 557 36,000  Level FlightAware Transoceanic
02:10AM 31.8238 -57.4840 275° West 484 557 36,000  Level FlightAware Transoceanic
02:11AM 31.8363 -57.6409 275° West 484 557 36,000  Level FlightAware Transoceanic
02:12AM 31.8449 -57.7816 275° West 482 555 36,000  Level FlightAware Transoceanic
02:13AM 31.8573 -57.9398 275° West 482 555 36,000  Level FlightAware Transoceanic
02:14AM 31.8694 -58.0980 275° West 482 555 36,000  Level FlightAware Transoceanic
02:15AM 31.8814 -58.2563 275° West 482 555 36,000  Level FlightAware Transoceanic
02:16AM 31.8932 -58.4147 275° West 482 555 36,000  Level FlightAware Transoceanic
02:17AM 31.9047 -58.5730 275° West 482 555 36,000  Level FlightAware Transoceanic
02:18AM 31.9161 -58.7314 275° West 482 555 36,000  Level FlightAware Transoceanic
02:19AM 31.9273 -58.8899 275° West 482 555 36,000  Level FlightAware Transoceanic
02:19AM 31.9333 -59.0000 275° West 477 549 36,000  Level New York Oceanic (ODAPS)
02:20AM 31.9382 -59.0484 275° West 482 555 36,000  Level FlightAware Transoceanic
02:21AM 31.9490 -59.2069 275° West 482 555 36,000  Level FlightAware Transoceanic
02:22AM 31.9596 -59.3654 274° West 482 555 36,000  Level FlightAware Transoceanic
02:23AM 31.9700 -59.5240 274° West 482 555 36,000  Level FlightAware Transoceanic
02:24AM 31.9802 -59.6826 274° West 482 555 36,000  Level FlightAware Transoceanic
02:25AM 31.9902 -59.8413 274° West 482 555 36,000  Level FlightAware Transoceanic
02:26AM 32.0000 -60.0000 286° West 477 549 36,000  Level FlightAware Transoceanic
02:26AM 32.0000 -60.0000 286° West 484 557 36,000  Level New York Oceanic (ODAPS)
02:27AM 32.0373 -60.1526 286° West 477 549 36,000  Level FlightAware Transoceanic
02:28AM 32.0743 -60.3053 286° West 477 549 36,000  Level FlightAware Transoceanic
02:29AM 32.1113 -60.4582 286° West 477 549 36,000  Level FlightAware Transoceanic
02:30AM 32.1480 -60.6112 286° West 477 549 36,000  Level FlightAware Transoceanic
02:31AM 32.1845 -60.7643 286° West 477 549 36,000  Level FlightAware Transoceanic
02:32AM 32.2209 -60.9175 286° West 484 557 36,000  Level FlightAware Transoceanic
02:33AM 32.2570 -61.0709 286° West 484 557 36,000 540 Level FlightAware Transoceanic
02:33AM 32.2833 -61.1667 285° West 483 556 37,000  Climbing New York Oceanic (ODAPS)
02:34AM 32.2930 -61.2243 285° West 484 557 36,000 -840 Descending FlightAware Transoceanic
02:35AM 32.3288 -61.3779 285° West 484 557 36,000  Level FlightAware Transoceanic
02:36AM 32.3644 -61.5316 285° West 484 557 36,000  Level FlightAware Transoceanic
02:37AM 32.3998 -61.6855 285° West 484 557 36,000  Level FlightAware Transoceanic
02:38AM 32.4351 -61.8394 285° West 484 557 36,000  Level FlightAware Transoceanic
02:39AM 32.4701 -61.9935 285° West 484 557 36,000 480 Level FlightAware Transoceanic
02:40AM 32.4967 -62.0960 285° West 483 556 37,000 480 Climbing FlightAware Transoceanic
02:41AM 32.5316 -62.2513 285° West 483 556 37,000  Level FlightAware Transoceanic
02:42AM 32.5663 -62.4067 285° West 483 556 37,000  Level FlightAware Transoceanic
02:43AM 32.6008 -62.5623 285° West 483 556 37,000  Level FlightAware Transoceanic
02:44AM 32.6352 -62.7180 285° West 483 556 37,000  Level FlightAware Transoceanic
02:45AM 32.6693 -62.8738 285° West 483 556 37,000  Level FlightAware Transoceanic
02:46AM 32.7032 -63.0297 284° West 483 556 37,000  Level FlightAware Transoceanic
02:47AM 32.7370 -63.1857 284° West 483 556 37,000  Level FlightAware Transoceanic
02:47AM 32.7667 -63.3000 284° West 488 562 37,000  Level New York Oceanic (ODAPS)
02:48AM 32.7705 -63.3419 284° West 483 556 37,000  Level FlightAware Transoceanic
02:49AM 32.8039 -63.4981 284° West 483 556 37,000  Level FlightAware Transoceanic
02:50AM 32.8370 -63.6545 284° West 483 556 37,000  Level FlightAware Transoceanic
02:51AM 32.8700 -63.8110 284° West 483 556 37,000  Level FlightAware Transoceanic
02:52AM 32.9028 -63.9676 284° West 483 556 37,000  Level FlightAware Transoceanic
02:53AM 32.9354 -64.1244 284° West 483 556 37,000  Level FlightAware Transoceanic
02:54AM 32.9647 -64.2452 284° West 488 562 37,000  Level FlightAware Transoceanic
02:55AM 32.9970 -64.4031 284° West 488 562 37,000  Level FlightAware Transoceanic
02:56AM 33.0291 -64.5612 284° West 488 562 37,000  Level FlightAware Transoceanic
02:57AM 33.0611 -64.7194 283° West 488 562 37,000  Level FlightAware Transoceanic
02:58AM 33.0928 -64.8777 283° West 488 562 37,000  Level FlightAware Transoceanic
02:59AM 33.1243 -65.0361 283° West 488 562 37,000  Level FlightAware Transoceanic
03:00AM 33.1556 -65.1946 283° West 488 562 37,000  Level FlightAware Transoceanic
03:01AM 33.1867 -65.3532 283° West 488 562 37,000  Level FlightAware Transoceanic
03:01AM 33.2167 -65.5000 283° West 492 566 37,000  Level New York Oceanic (ODAPS)
03:02AM 33.2176 -65.5119 283° West 488 562 37,000  Level FlightAware Transoceanic
03:03AM 33.2483 -65.6708 283° West 488 562 37,000  Level FlightAware Transoceanic
03:04AM 33.2789 -65.8298 283° West 488 562 37,000  Level FlightAware Transoceanic
03:05AM 33.3092 -65.9888 283° West 488 562 37,000  Level FlightAware Transoceanic
03:06AM 33.3393 -66.1480 283° West 488 562 37,000  Level FlightAware Transoceanic
03:07AM 33.3982 -66.4573 283° West 492 566 37,000  Level FlightAware Transoceanic
03:08AM 33.4277 -66.6172 282° West 492 566 37,000  Level FlightAware Transoceanic
03:09AM 33.4571 -66.7773 282° West 492 566 37,000  Level FlightAware Transoceanic
03:10AM 33.4862 -66.9374 282° West 492 566 37,000  Level FlightAware Transoceanic
03:11AM 33.5151 -67.0977 282° West 492 566 37,000  Level FlightAware Transoceanic
03:12AM 33.5438 -67.2580 282° West 492 566 37,000  Level FlightAware Transoceanic
03:13AM 33.5723 -67.4185 282° West 492 566 37,000  Level FlightAware Transoceanic
03:14AM 33.6006 -67.5791 282° West 492 566 37,000  Level FlightAware Transoceanic
03:15AM 33.6287 -67.7398 282° West 492 566 37,000  Level FlightAware Transoceanic
03:15AM 33.6167 -67.7333 282° West 493 567 37,000  Level New York Oceanic (ODAPS)
03:16AM 33.6566 -67.9006 282° West 492 566 37,000  Level FlightAware Transoceanic
03:17AM 33.6843 -68.0614 282° West 492 566 37,000  Level FlightAware Transoceanic
03:18AM 33.7117 -68.2224 282° West 492 566 37,000  Level FlightAware Transoceanic
03:19AM 33.7390 -68.3835 281° West 492 566 37,000  Level FlightAware Transoceanic
03:20AM 33.7660 -68.5447 281° West 492 566 37,000  Level FlightAware Transoceanic
03:21AM 33.7860 -68.7023 282° West 493 567 37,000  Level FlightAware Transoceanic
03:22AM 33.8135 -68.8641 282° West 493 567 37,000  Level FlightAware Transoceanic
03:23AM 33.8408 -69.0261 281° West 493 567 37,000  Level FlightAware Transoceanic
03:24AM 33.8679 -69.1881 281° West 493 567 37,000  Level FlightAware Transoceanic
03:25AM 33.8947 -69.3503 281° West 493 567 37,000  Level FlightAware Transoceanic
03:26AM 33.9214 -69.5126 281° West 493 567 37,000  Level FlightAware Transoceanic
03:27AM 33.9478 -69.6750 281° West 493 567 37,000  Level FlightAware Transoceanic
03:28AM 33.9740 -69.8374 281° West 493 567 37,000  Level FlightAware Transoceanic
03:29AM 34.0000 -70.0000 265° West 493 567 37,000 540 Level FlightAware Transoceanic
03:29AM 34.0000 -69.9667 270° West 468 539 38,000  Climbing New York Oceanic (ODAPS)
03:30AM 33.9883 -70.1553 265° West 493 567 37,000 -900 Descending FlightAware Transoceanic
03:31AM 33.9765 -70.3105 265° West 493 567 37,000  Level FlightAware Transoceanic
03:32AM 33.9644 -70.4657 265° West 493 567 37,000  Level FlightAware Transoceanic
03:33AM 33.9522 -70.6209 265° West 493 567 37,000  Level FlightAware Transoceanic
03:34AM 33.9398 -70.7760 264° West 493 567 37,000  Level FlightAware Transoceanic
03:35AM 33.9271 -70.9310 264° West 493 567 37,000 480 Level FlightAware Transoceanic
03:36AM 33.9143 -71.0861 264° West 468 539 38,000 480 Climbing FlightAware Transoceanic
03:37AM 33.9013 -71.2410 264° West 468 539 38,000  Level FlightAware Transoceanic
03:38AM 33.8881 -71.3959 264° West 468 539 38,000  Level FlightAware Transoceanic
03:39AM 33.8747 -71.5508 264° West 468 539 38,000  Level FlightAware Transoceanic
03:40AM 33.8611 -71.7056 264° West 468 539 38,000  Level FlightAware Transoceanic
03:41AM 33.8473 -71.8604 264° West 468 539 38,000  Level FlightAware Transoceanic
03:42AM 33.8333 -72.0151 264° West 468 539 38,000  Level FlightAware Transoceanic
03:43AM 33.8191 -72.1698 264° West 468 539 38,000  Level FlightAware Transoceanic
03:43AM 33.8167 -72.2167 264° West 485 558 38,000  Level New York Oceanic (ODAPS)
03:44AM 33.8047 -72.3244 264° West 468 539 38,000  Level FlightAware Transoceanic
03:45AM 33.7902 -72.4790 263° West 468 539 38,000  Level FlightAware Transoceanic
03:46AM 33.7754 -72.6335 263° West 468 539 38,000  Level FlightAware Transoceanic
03:47AM 33.7605 -72.7880 263° West 468 539 38,000  Level FlightAware Transoceanic
03:48AM 33.7453 -72.9424 263° West 468 539 38,000  Level FlightAware Transoceanic
03:49AM 33.7217 -73.1896 263° West 485 558 38,000  Level FlightAware Transoceanic
03:50AM 33.7052 -73.3515 263° West 485 558 38,000  Level FlightAware Transoceanic
03:51AM 33.6884 -73.5134 263° West 485 558 38,000  Level FlightAware Transoceanic
03:52AM 33.6714 -73.6752 263° West 485 558 38,000  Level FlightAware Transoceanic
03:53AM 33.6542 -73.8370 263° West 485 558 38,000  Level FlightAware Transoceanic
03:54AM 33.6368 -73.9987 263° West 485 558 38,000  Level FlightAware Transoceanic
03:55AM 33.6192 -74.1603 262° West 485 558 38,000 -60 Level FlightAware Transoceanic
03:59AM 33.5792 -74.8444 262° West 485 558 37,900  Descending New York Center
04:00AM 33.5631 -75.0006 263° West 480 552 38,000  Climbing New York Center
04:01AM 33.5406 -75.1589 260° West 480 552 38,000 -60 Level New York Center
04:02AM 33.5283 -75.3125 265° West 480 552 37,900 -60 Descending New York Center
04:03AM 33.5222 -75.4689 267° West 475 547 37,900  Level New York Center
04:04AM 33.5094 -75.6275 265° West 475 547 37,900  Level New York Center
04:05AM 33.5050 -75.7817 268° West 475 547 37,900 300 Level New York Center
04:06AM 33.4981 -75.9381 267° West 475 547 38,600 660 Climbing New York Center
04:07AM 33.4864 -76.0978 265° West 479 551 39,300 480 Climbing Washington Center
04:09AM 33.4719 -76.3372 266° West 462 532 39,900 240 Climbing Jacksonville Center
04:10AM 33.4575 -76.5000 264° West 468 539 40,000  Climbing Jacksonville Center
04:11AM 33.4464 -76.6525 265° West 468 539 40,000 -60 Level Jacksonville Center
04:12AM 33.4350 -76.8078 265° West 468 539 39,900  Descending Jacksonville Center
04:13AM 33.4236 -76.9628 265° West 468 539 40,000  Climbing Jacksonville Center
04:14AM 33.4119 -77.1153 265° West 468 539 39,900  Descending Jacksonville Center
04:20AM 33.3390 -78.0370 265° West 451 519 40,000  Climbing FlightAware
04:20AM 33.3320 -78.1260 265° West 449 517 40,000  Level FlightAware
04:21AM 33.3230 -78.2330 264° West 450 518 40,000  Level FlightAware
04:22AM 33.3140 -78.3400 264° West 447 514 40,000  Level FlightAware
04:22AM 33.3050 -78.4440 264° West 442 509 40,000  Level FlightAware
04:23AM 33.2950 -78.5540 264° West 443 510 40,000  Level FlightAware
04:24AM 33.2870 -78.6480 264° West 443 510 40,000  Level FlightAware
04:24AM 33.2780 -78.7490 264° West 443 510 40,000  Level FlightAware
04:25AM 33.2680 -78.8570 264° West 442 509 40,000  Level FlightAware
04:26AM 33.2600 -78.9510 264° West 443 510 40,000  Level FlightAware
04:27AM 33.2510 -79.0450 263° West 442 509 40,000  Level FlightAware
04:28AM 33.2370 -79.1880 263° West 441 507 40,000  Level FlightAware
04:28AM 33.2280 -79.2930 264° West 442 509 40,000  Level FlightAware
04:29AM 33.2200 -79.3750 263° West 443 510 40,000  Level FlightAware
04:30AM 33.2080 -79.4990 263° West 443 510 40,000  Level FlightAware
04:30AM 33.1990 -79.5960 264° West 446 513 40,000  Level FlightAware
04:31AM 33.1890 -79.6950 263° West 451 519 40,000  Level FlightAware
04:32AM 33.1790 -79.8060 264° West 453 521 40,000  Level FlightAware
04:32AM 33.1690 -79.9050 263° West 453 521 40,000  Level FlightAware
04:33AM 33.1580 -80.0170 263° West 454 522 40,000  Level FlightAware
04:34AM 33.1480 -80.1170 263° West 453 521 40,000  Level FlightAware
04:35AM 33.1370 -80.2280 263° West 452 520 40,000  Level FlightAware
04:35AM 33.1270 -80.3230 263° West 453 521 40,000  Level FlightAware
04:36AM 33.1150 -80.4340 263° West 453 521 40,000  Level FlightAware
04:37AM 33.1050 -80.5310 263° West 453 521 40,000  Level FlightAware
04:37AM 33.0960 -80.6190 263° West 452 520 40,000  Level FlightAware
04:38AM 33.0790 -80.7760 263° West 453 521 40,000  Level FlightAware
04:39AM 33.0710 -80.8580 263° West 452 520 40,000  Level FlightAware
04:40AM 33.0580 -80.9730 262° West 452 520 40,000  Level FlightAware
04:40AM 33.0490 -81.0620 263° West 452 520 40,000  Level FlightAware
04:41AM 33.0370 -81.1740 263° West 452 520 40,000  Level FlightAware
04:42AM 33.0240 -81.2900 262° West 451 519 40,000  Level FlightAware
04:42AM 33.0130 -81.3910 263° West 452 520 40,000  Level FlightAware
04:43AM 33.0010 -81.4920 262° West 452 520 40,000  Level FlightAware
04:44AM 32.9890 -81.5990 262° West 451 519 40,000  Level FlightAware
04:44AM 32.9800 -81.6800 262° West 450 518 40,000  Level FlightAware
04:45AM 32.9670 -81.7960 262° West 449 517 40,000  Level FlightAware
04:46AM 32.9550 -81.9030 262° West 448 516 40,000  Level FlightAware
04:47AM 32.9420 -82.0090 262° West 447 514 40,000  Level FlightAware
04:47AM 32.9300 -82.1130 262° West 447 514 40,000  Level FlightAware
04:48AM 32.9180 -82.2190 262° West 446 513 40,000  Level FlightAware
04:49AM 32.9060 -82.3130 261° West 445 512 40,000  Level FlightAware
04:49AM 32.8940 -82.4170 262° West 445 512 40,000  Level FlightAware
04:50AM 32.8820 -82.5190 262° West 443 510 40,000  Level FlightAware
04:51AM 32.8680 -82.6290 261° West 443 510 40,000  Level FlightAware
04:52AM 32.8570 -82.7260 262° West 444 511 40,000  Level FlightAware
04:52AM 32.8450 -82.8220 262° West 444 511 40,000  Level FlightAware
04:53AM 32.8320 -82.9290 262° West 445 512 40,000  Level FlightAware
04:54AM 32.8190 -83.0260 261° West 444 511 40,000  Level FlightAware
04:54AM 32.8060 -83.1310 262° West 445 512 40,000  Level FlightAware
04:55AM 32.7940 -83.2280 262° West 445 512 40,000  Level FlightAware
04:56AM 32.7810 -83.3310 261° West 444 511 40,000  Level FlightAware
04:56AM 32.7680 -83.4310 261° West 446 513 40,000  Level FlightAware
04:57AM 32.7540 -83.5420 262° West 447 514 40,000  Level FlightAware
04:58AM 32.7410 -83.6390 261° West 447 514 40,000  Level FlightAware
04:59AM 32.7290 -83.7350 262° West 448 516 40,000  Level FlightAware
04:59AM 32.7150 -83.8430 261° West 447 514 40,000  Level FlightAware
05:00AM 32.7020 -83.9390 261° West 446 513 40,000  Level FlightAware
05:01AM 32.6880 -84.0400 261° West 446 513 40,000  Level FlightAware
05:01AM 32.6740 -84.1460 261° West 447 514 40,000  Level FlightAware
05:02AM 32.6600 -84.2540 261° West 447 514 40,000  Level FlightAware
05:03AM 32.6470 -84.3490 261° West 447 514 40,000  Level FlightAware
05:04AM 32.6320 -84.4580 261° West 447 514 40,000  Level FlightAware
05:04AM 32.6180 -84.5590 261° West 449 517 40,000  Level FlightAware
05:05AM 32.6110 -84.6130 261° West 449 517 40,000  Level FlightAware
05:06AM 32.5910 -84.7570 261° West 449 517 40,000  Level FlightAware
05:06AM 32.5720 -84.8630 258° West 451 519 40,000  Level FlightAware
05:07AM 32.5360 -85.0180 255° West 450 518 40,000  Level FlightAware
05:08AM 32.5140 -85.1260 256° West 450 518 40,000  Level FlightAware
05:09AM 32.4920 -85.2310 256° West 449 517 40,000  Level FlightAware
05:10AM 32.4710 -85.3310 256° West 451 519 40,000  Level FlightAware
05:10AM 32.4520 -85.4140 255° West 451 519 40,000  Level FlightAware
05:11AM 32.4310 -85.5080 255° West 451 519 40,000  Level FlightAware
05:12AM 32.4030 -85.6450 256° West 452 520 40,000  Level FlightAware
05:12AM 32.3850 -85.7240 255° West 452 520 40,000  Level FlightAware
05:13AM 32.3630 -85.8220 255° West 452 520 40,000  Level FlightAware
05:14AM 32.3370 -85.9450 256° West 453 521 40,000  Level FlightAware
05:15AM 32.3140 -86.0470 255° West 453 521 40,000  Level FlightAware
05:15AM 32.2950 -86.1350 256° West 455 524 40,000  Level FlightAware
05:16AM 32.2630 -86.2760 255° West 455 524 40,000  Level FlightAware
05:17AM 32.2400 -86.3820 256° West 454 522 40,000  Level FlightAware
05:18AM 32.2110 -86.5090 255° West 454 522 40,000  Level FlightAware
05:18AM 32.1940 -86.5820 255° West 454 522 40,000  Level FlightAware
05:19AM 32.1720 -86.6800 255° West 454 522 40,000  Level FlightAware
05:20AM 32.1510 -86.7740 255° West 454 522 40,000  Level FlightAware
05:21AM 32.1280 -86.8730 255° West 454 522 40,000  Level FlightAware
05:21AM 32.1110 -86.9490 255° West 454 522 40,000  Level FlightAware
05:22AM 32.0890 -87.0470 255° West 454 522 40,000  Level FlightAware
05:23AM 32.0440 -87.2320 254° West 457 526 40,000  Level FlightAware
05:24AM 32.0190 -87.3360 254° West 457 526 40,000  Level FlightAware
05:24AM 32.0020 -87.4070 254° West 457 526 40,000  Level FlightAware
05:25AM 31.9710 -87.5350 254° West 457 526 40,000  Level FlightAware
05:26AM 31.9390 -87.6790 255° West 459 528 40,000  Level FlightAware
05:27AM 31.9170 -87.7720 254° West 459 528 40,000  Level FlightAware
05:27AM 31.8880 -87.8910 254° West 458 527 40,000  Level FlightAware
05:28AM 31.8660 -87.9820 254° West 458 527 40,000  Level FlightAware
05:29AM 31.8400 -88.0910 254° West 458 527 40,000  Level FlightAware
05:30AM 31.8160 -88.1890 254° West 458 527 40,000  Level FlightAware
05:30AM 31.7940 -88.2830 255° West 459 528 40,000  Level FlightAware
05:31AM 31.7710 -88.3770 254° West 460 529 40,000  Level FlightAware
05:31AM 31.7530 -88.4510 254° West 460 529 40,000  Level FlightAware
05:33AM 31.7110 -88.6230 254° West 459 528 40,000  Level FlightAware
05:33AM 31.6860 -88.7220 253° West 460 529 40,000  Level FlightAware
05:34AM 31.6580 -88.8340 254° West 461 531 40,000  Level FlightAware
05:35AM 31.6350 -88.9290 254° West 461 531 40,000  Level FlightAware
05:36AM 31.5960 -89.0790 253° West 461 531 40,000  Level FlightAware
05:36AM 31.5760 -89.1540 253° West 461 531 40,000  Level FlightAware
05:37AM 31.5380 -89.3120 254° West 464 534 40,000  Level FlightAware
05:38AM 31.5120 -89.4120 253° West 464 534 40,000  Level FlightAware
05:39AM 31.4930 -89.4860 253° West 464 534 40,000  Level FlightAware
05:39AM 31.4580 -89.6270 254° West 470 541 40,000  Level FlightAware
05:40AM 31.4300 -89.7390 254° West 471 542 40,000  Level FlightAware
05:41AM 31.4070 -89.8280 253° West 472 543 40,000  Level FlightAware
05:42AM 31.3760 -89.9470 253° West 473 544 40,000  Level FlightAware
05:42AM 31.3510 -90.0450 253° West 473 544 40,000  Level FlightAware
05:43AM 31.3210 -90.1590 253° West 472 543 40,000  Level FlightAware
05:44AM 31.2960 -90.2550 253° West 473 544 40,000  Level FlightAware
05:44AM 31.2720 -90.3480 253° West 474 545 40,000  Level FlightAware
05:45AM 31.2400 -90.4690 253° West 476 548 40,000  Level FlightAware
05:46AM 31.2140 -90.5690 253° West 476 548 40,000  Level FlightAware
05:47AM 31.1940 -90.6470 253° West 476 548 40,000  Level FlightAware
05:48AM 31.1610 -90.7720 253° West 476 548 40,000  Level FlightAware
05:48AM 31.1410 -90.8480 253° West 476 548 40,000  Level FlightAware
05:49AM 31.1140 -90.9500 253° West 476 548 40,000  Level FlightAware
05:50AM 31.0800 -91.0800 253° West 476 548 40,000  Level FlightAware
05:51AM 31.0540 -91.1820 253° West 476 548 40,000  Level FlightAware
05:52AM 31.0340 -91.2570 253° West 476 548 40,000  Level FlightAware
05:52AM 31.0080 -91.3580 253° West 476 548 40,000  Level FlightAware
05:53AM 30.9870 -91.4350 252° West 476 548 40,000  Level FlightAware
05:54AM 30.9610 -91.5350 253° West 476 548 40,000  Level FlightAware
05:54AM 30.9410 -91.6120 253° West 476 548 40,000  Level FlightAware
05:55AM 30.8586 -91.9000 253° West 480 552 40,000 -1,020 Level Houston Center
06:00AM 30.6439 -92.6871 253° West 463 533 34,200 -1,140 Descending FlightAware ADS-B
06:01AM 30.6231 -92.7619 252° West 465 535 33,500 -1,920 Descending FlightAware ADS-B
06:01AM 30.5997 -92.8462 252° West 472 543 32,100 -2,220 Descending FlightAware ADS-B
06:02AM 30.5783 -92.9225 252° West 490 564 31,100 -1,920 Descending FlightAware ADS-B
06:02AM 30.5572 -92.9978 252° West 492 566 30,200 -1,980 Descending FlightAware ADS-B
06:03AM 30.5356 -93.0746 252° West 501 577 29,100 -1,620 Descending FlightAware ADS-B
06:04AM 30.5138 -93.1519 252° West 496 571 28,600 -1,200 Descending FlightAware ADS-B
06:04AM 30.4924 -93.2276 252° West 494 568 27,900 -1,320 Descending FlightAware ADS-B
06:05AM 30.4710 -93.3037 252° West 492 566 27,300 -1,620 Descending FlightAware ADS-B
06:05AM 30.4498 -93.3781 252° West 485 558 26,300 -2,280 Descending FlightAware ADS-B
06:06AM 30.4286 -93.4528 252° West 481 554 25,000 -2,460 Descending FlightAware ADS-B
06:06AM 30.4077 -93.5259 252° West 476 548 23,800 -2,400 Descending FlightAware ADS-B
06:07AM 30.3872 -93.5980 252° West 471 542 22,600 -2,340 Descending FlightAware ADS-B
06:07AM 30.3669 -93.6690 252° West 462 532 21,500 -2,340 Descending FlightAware ADS-B
06:08AM 30.3464 -93.7399 251° West 455 524 20,300 -2,280 Descending FlightAware ADS-B
06:08AM 30.3265 -93.8092 252° West 448 516 19,200 -2,280 Descending FlightAware ADS-B
06:09AM 30.3065 -93.8782 251° West 440 506 18,000 -2,280 Descending FlightAware ADS-B
06:09AM 30.2870 -93.9451 251° West 433 498 16,900 -2,220 Descending FlightAware ADS-B
06:10AM 30.2594 -94.0405 252° West 424 488 15,300 -2,160 Descending FlightAware ADS-B
06:10AM 30.2409 -94.1046 252° West 415 478 14,300 -2,040 Descending FlightAware ADS-B
06:11AM 30.2219 -94.1702 251° West 405 466 13,200 -1,980 Descending FlightAware ADS-B
06:11AM 30.2040 -94.2312 251° West 391 450 12,300 -1,320 Descending FlightAware ADS-B
06:12AM 30.1869 -94.2895 251° West 379 436 11,900 -1,620 Descending FlightAware ADS-B
06:12AM 30.1698 -94.3472 251° West 364 419 10,700 -1,680 Descending FlightAware ADS-B
06:13AM 30.1544 -94.4006 252° West 330 380 10,200 -720 Descending FlightAware ADS-B
06:13AM 30.1412 -94.4453 251° West 296 341 10,000 -600 Descending FlightAware ADS-B
06:14AM 30.1347 -94.4674 251° West 282 325 9,800 -1,020 Descending FlightAware ADS-B
06:14AM 30.1283 -94.4887 251° West 281 323 9,500 -1,200 Descending FlightAware ADS-B
06:14AM 30.1218 -94.5104 251° West 281 323 9,200 -1,200 Descending FlightAware ADS-B
06:14AM 30.1155 -94.5320 251° West 280 322 8,900 -1,440 Descending FlightAware ADS-B
06:15AM 30.1093 -94.5530 251° West 280 322 8,500 -1,440 Descending FlightAware ADS-B
06:15AM 30.1031 -94.5742 251° West 280 322 8,200 -1,200 Descending FlightAware ADS-B
06:15AM 30.0966 -94.5965 251° West 279 321 7,900 -1,320 Descending FlightAware ADS-B
06:15AM 30.0902 -94.6183 251° West 279 321 7,500 -1,380 Descending FlightAware ADS-B
06:16AM 30.0838 -94.6397 251° West 278 320 7,200 -1,320 Descending FlightAware ADS-B
06:16AM 30.0782 -94.6586 251° West 278 320 6,900 -1,320 Descending FlightAware ADS-B
06:16AM 30.0719 -94.6800 251° West 278 320 6,600 -1,200 Descending FlightAware ADS-B
06:16AM 30.0656 -94.7011 251° West 277 319 6,300 -1,440 Descending FlightAware ADS-B
06:17AM 30.0597 -94.7209 251° West 277 319 5,900 -1,500 Descending FlightAware ADS-B
06:17AM 30.0534 -94.7421 251° West 276 318 5,600 -1,200 Descending FlightAware ADS-B
06:17AM 30.0472 -94.7630 251° West 276 318 5,300 -1,200 Descending FlightAware ADS-B
06:17AM 30.0408 -94.7845 251° West 275 316 5,000 -1,380 Descending FlightAware ADS-B
06:18AM 30.0345 -94.8056 251° West 274 315 4,600 -1,380 Descending FlightAware ADS-B
06:18AM 30.0282 -94.8268 251° West 273 314 4,300 -1,200 Descending FlightAware ADS-B
06:18AM 30.0218 -94.8484 251° West 272 313 4,000 -780 Descending FlightAware ADS-B
06:18AM 30.0154 -94.8697 251° West 265 305 3,900 -240 Descending FlightAware ADS-B
06:19AM 30.0094 -94.8900 251° West 264 304 3,900  Level FlightAware ADS-B
06:19AM 30.0034 -94.9102 251° West 255 293 3,900  Level FlightAware ADS-B
06:19AM 29.9977 -94.9294 251° West 247 284 3,900  Level FlightAware ADS-B
06:19AM 29.9919 -94.9487 251° West 248 285 3,900  Level FlightAware ADS-B
06:20AM 29.9863 -94.9675 251° West 247 284 3,900  Level FlightAware ADS-B
06:20AM 29.9822 -94.9808 250° West 247 284 3,900  Level FlightAware ADS-B
06:20AM 29.9805 -94.9874 253° West 248 285 3,900  Level FlightAware ADS-B
06:20AM 29.9794 -94.9922 255° West 248 285 3,900  Level FlightAware ADS-B
06:20AM 29.9786 -94.9968 259° West 250 288 3,900  Level FlightAware ADS-B
06:20AM 29.9782 -95.0008 263° West 251 289 3,900  Level FlightAware ADS-B
06:20AM 29.9778 -95.0061 265° West 251 289 3,900  Level FlightAware ADS-B
06:20AM 29.9775 -95.0151 268° West 252 290 3,900  Level FlightAware ADS-B
06:20AM 29.9776 -95.0324 270° West 251 289 3,900  Level FlightAware ADS-B
06:21AM 29.9774 -95.0524 269° West 237 273 3,900 -240 Level FlightAware ADS-B
06:21AM 29.9775 -95.0716 270° West 231 266 3,800 -840 Descending FlightAware ADS-B
06:21AM 29.9775 -95.0882 270° West 232 267 3,500 -1,260 Descending FlightAware ADS-B
06:21AM 29.9776 -95.1077 270° West 234 269 3,200 -1,320 Descending FlightAware ADS-B
06:22AM 29.9777 -95.1225 270° West 236 272 2,900 -1,200 Descending FlightAware ADS-B
06:22AM 29.9775 -95.1408 269° West 236 272 2,700 -1,080 Descending FlightAware ADS-B
06:22AM 29.9775 -95.1583 270° West 235 270 2,400 -1,260 Descending FlightAware ADS-B
06:22AM 29.9776 -95.1771 270° West 230 265 2,100 -1,320 Descending FlightAware ADS-B
06:23AM 29.9776 -95.1971 270° West 215 247 1,700 -1,080 Descending FlightAware ADS-B
06:23AM 29.9776 -95.2156 270° West 197 227 1,500 -960 Descending FlightAware ADS-B
06:23AM 29.9776 -95.2311 270° West 185 213 1,200 -1,020 Descending FlightAware ADS-B
06:23AM 29.9776 -95.2458 270° West 173 199 1,000 -1,020 Descending FlightAware ADS-B
06:24AM 29.9776 -95.2531 270° West 160 184 800 -780 Descending FlightAware ADS-B
06:24AM 29.9776 -95.2595 270° West 150 173 800 -720 Level FlightAware ADS-B
06:24AM 29.9777 -95.2675 271° West 146 168 600 -960 Descending FlightAware ADS-B
06:24AM 29.9775 -95.2791 269° West 146 168 400 -780 Descending FlightAware ADS-B
06:24AM 29.9776 -95.2918 271° West 146 168 200 -720 Descending FlightAware ADS-B
06:25AM 29.9776 -95.3036 270° West 145 167 -840 Descending FlightAware ADS-B